sensor_id;sensor_type;location;lat;lon;timestamp;pressure;altitude;pressure_sealevel;temperature
53412;BMP280;39307;52.870;13.660;2023-06-05T00:01:40;101636.47;;;11.64
53412;BMP280;39307;52.870;13.660;2023-06-05T00:04:06;101634.81;;;11.63
53412;BMP280;39307;52.870;13.660;2023-06-05T00:06:32;101633.00;;;11.64
53412;BMP280;39307;52.870;13.660;2023-06-05T00:08:58;101633.19;;;11.62
53412;BMP280;39307;52.870;13.660;2023-06-05T00:11:24;101635.13;;;11.60
53412;BMP280;39307;52.870;13.660;2023-06-05T00:13:51;101631.03;;;11.58
53412;BMP280;39307;52.870;13.660;2023-06-05T00:16:17;101644.34;;;11.56
53412;BMP280;39307;52.870;13.660;2023-06-05T00:18:43;101639.56;;;11.52
53412;BMP280;39307;52.870;13.660;2023-06-05T00:21:09;101638.28;;;11.48
53412;BMP280;39307;52.870;13.660;2023-06-05T00:23:36;101632.22;;;11.48
53412;BMP280;39307;52.870;13.660;2023-06-05T00:26:02;101634.84;;;11.48
53412;BMP280;39307;52.870;13.660;2023-06-05T00:28:28;101637.13;;;11.43
53412;BMP280;39307;52.870;13.660;2023-06-05T00:30:54;101641.91;;;11.39
53412;BMP280;39307;52.870;13.660;2023-06-05T00:33:20;101639.44;;;11.38
53412;BMP280;39307;52.870;13.660;2023-06-05T00:35:47;101637.75;;;11.37
53412;BMP280;39307;52.870;13.660;2023-06-05T00:38:13;101640.72;;;11.34
53412;BMP280;39307;52.870;13.660;2023-06-05T00:40:39;101640.09;;;11.32
53412;BMP280;39307;52.870;13.660;2023-06-05T00:43:05;101638.59;;;11.29
53412;BMP280;39307;52.870;13.660;2023-06-05T00:45:31;101641.41;;;11.28
53412;BMP280;39307;52.870;13.660;2023-06-05T00:47:57;101645.19;;;11.25
53412;BMP280;39307;52.870;13.660;2023-06-05T00:50:23;101647.31;;;11.22
53412;BMP280;39307;52.870;13.660;2023-06-05T00:52:50;101644.69;;;11.22
53412;BMP280;39307;52.870;13.660;2023-06-05T00:55:16;101639.44;;;11.22
53412;BMP280;39307;52.870;13.660;2023-06-05T00:57:42;101642.53;;;11.18
53412;BMP280;39307;52.870;13.660;2023-06-05T01:00:08;101642.06;;;11.14
53412;BMP280;39307;52.870;13.660;2023-06-05T01:02:35;101635.34;;;11.12
53412;BMP280;39307;52.870;13.660;2023-06-05T01:05:01;101638.28;;;11.09
53412;BMP280;39307;52.870;13.660;2023-06-05T01:07:26;101635.84;;;11.07
53412;BMP280;39307;52.870;13.660;2023-06-05T01:09:52;101633.69;;;11.03
53412;BMP280;39307;52.870;13.660;2023-06-05T01:12:20;101632.41;;;10.99
53412;BMP280;39307;52.870;13.660;2023-06-05T01:14:48;101628.47;;;10.95
53412;BMP280;39307;52.870;13.660;2023-06-05T01:17:15;101629.44;;;10.94
53412;BMP280;39307;52.870;13.660;2023-06-05T01:19:41;101629.75;;;10.91
53412;BMP280;39307;52.870;13.660;2023-06-05T01:22:07;101630.28;;;10.87
53412;BMP280;39307;52.870;13.660;2023-06-05T01:24:33;101631.91;;;10.88
53412;BMP280;39307;52.870;13.660;2023-06-05T01:29:26;101628.78;;;10.84
53412;BMP280;39307;52.870;13.660;2023-06-05T01:31:55;101629.13;;;10.81
53412;BMP280;39307;52.870;13.660;2023-06-05T01:34:23;101629.44;;;10.78
53412;BMP280;39307;52.870;13.660;2023-06-05T01:36:50;101632.38;;;10.75
53412;BMP280;39307;52.870;13.660;2023-06-05T01:39:17;101631.75;;;10.73
53412;BMP280;39307;52.870;13.660;2023-06-05T01:41:43;101628.59;;;10.70
53412;BMP280;39307;52.870;13.660;2023-06-05T01:44:09;101627.31;;;10.66
53412;BMP280;39307;52.870;13.660;2023-06-05T01:46:36;101638.28;;;10.62
53412;BMP280;39307;52.870;13.660;2023-06-05T01:49:02;101631.69;;;10.58
53412;BMP280;39307;52.870;13.660;2023-06-05T01:51:28;101636.44;;;10.54
53412;BMP280;39307;52.870;13.660;2023-06-05T01:53:54;101636.75;;;10.51
53412;BMP280;39307;52.870;13.660;2023-06-05T01:56:20;101635.44;;;10.47
53412;BMP280;39307;52.870;13.660;2023-06-05T01:58:46;101631.34;;;10.37
53412;BMP280;39307;52.870;13.660;2023-06-05T02:01:12;101631.13;;;10.31
53412;BMP280;39307;52.870;13.660;2023-06-05T02:03:38;101633.13;;;10.29
53412;BMP280;39307;52.870;13.660;2023-06-05T02:06:04;101635.56;;;10.22
53412;BMP280;39307;52.870;13.660;2023-06-05T02:08:30;101624.91;;;10.16
53412;BMP280;39307;52.870;13.660;2023-06-05T02:10:57;101628.47;;;10.07
53412;BMP280;39307;52.870;13.660;2023-06-05T02:13:23;101626.81;;;10.06
53412;BMP280;39307;52.870;13.660;2023-06-05T02:15:49;101621.41;;;10.00
53412;BMP280;39307;52.870;13.660;2023-06-05T02:18:15;101620.56;;;9.99
53412;BMP280;39307;52.870;13.660;2023-06-05T02:20:42;101619.59;;;10.00
53412;BMP280;39307;52.870;13.660;2023-06-05T02:23:08;101614.03;;;9.95
53412;BMP280;39307;52.870;13.660;2023-06-05T02:25:34;101625.13;;;9.89
53412;BMP280;39307;52.870;13.660;2023-06-05T02:28:00;101623.91;;;9.84
53412;BMP280;39307;52.870;13.660;2023-06-05T02:30:27;101621.09;;;9.78
53412;BMP280;39307;52.870;13.660;2023-06-05T02:32:53;101615.19;;;9.68
53412;BMP280;39307;52.870;13.660;2023-06-05T02:35:19;101619.44;;;9.69
53412;BMP280;39307;52.870;13.660;2023-06-05T02:37:45;101624.47;;;9.62
53412;BMP280;39307;52.870;13.660;2023-06-05T02:40:12;101616.13;;;9.59
53412;BMP280;39307;52.870;13.660;2023-06-05T02:42:39;101617.91;;;9.58
53412;BMP280;39307;52.870;13.660;2023-06-05T02:45:05;101615.59;;;9.55
53412;BMP280;39307;52.870;13.660;2023-06-05T02:47:32;101615.75;;;9.54
53412;BMP280;39307;52.870;13.660;2023-06-05T02:49:58;101612.50;;;9.52
53412;BMP280;39307;52.870;13.660;2023-06-05T02:52:24;101610.81;;;9.51
53412;BMP280;39307;52.870;13.660;2023-06-05T02:54:51;101611.63;;;9.51
53412;BMP280;39307;52.870;13.660;2023-06-05T02:57:17;101613.75;;;9.48
53412;BMP280;39307;52.870;13.660;2023-06-05T02:59:44;101609.19;;;9.50
53412;BMP280;39307;52.870;13.660;2023-06-05T03:02:10;101613.63;;;9.50
53412;BMP280;39307;52.870;13.660;2023-06-05T03:04:36;101611.94;;;9.49
53412;BMP280;39307;52.870;13.660;2023-06-05T03:07:02;101605.09;;;9.48
53412;BMP280;39307;52.870;13.660;2023-06-05T03:09:27;101597.25;;;9.48
53412;BMP280;39307;52.870;13.660;2023-06-05T03:11:53;101600.69;;;9.48
53412;BMP280;39307;52.870;13.660;2023-06-05T03:14:19;101601.16;;;9.44
53412;BMP280;39307;52.870;13.660;2023-06-05T03:16:45;101603.09;;;9.42
53412;BMP280;39307;52.870;13.660;2023-06-05T03:19:11;101598.53;;;9.44
53412;BMP280;39307;52.870;13.660;2023-06-05T03:21:36;101597.88;;;9.42
53412;BMP280;39307;52.870;13.660;2023-06-05T03:24:03;101597.06;;;9.41
53412;BMP280;39307;52.870;13.660;2023-06-05T03:26:29;101596.06;;;9.42
53412;BMP280;39307;52.870;13.660;2023-06-05T03:28:55;101601.16;;;9.44
53412;BMP280;39307;52.870;13.660;2023-06-05T03:31:21;101600.16;;;9.45
53412;BMP280;39307;52.870;13.660;2023-06-05T03:33:47;101595.63;;;9.47
53412;BMP280;39307;52.870;13.660;2023-06-05T03:36:12;101597.13;;;9.49
53412;BMP280;39307;52.870;13.660;2023-06-05T03:38:38;101601.03;;;9.53
53412;BMP280;39307;52.870;13.660;2023-06-05T03:41:04;101601.69;;;9.55
53412;BMP280;39307;52.870;13.660;2023-06-05T03:43:30;101598.63;;;9.59
53412;BMP280;39307;52.870;13.660;2023-06-05T03:45:55;101597.34;;;9.63
53412;BMP280;39307;52.870;13.660;2023-06-05T03:48:21;101594.91;;;9.70
53412;BMP280;39307;52.870;13.660;2023-06-05T03:50:47;101592.66;;;9.75
53412;BMP280;39307;52.870;13.660;2023-06-05T03:53:13;101589.25;;;9.82
53412;BMP280;39307;52.870;13.660;2023-06-05T03:55:39;101595.69;;;9.87
53412;BMP280;39307;52.870;13.660;2023-06-05T03:58:05;101591.63;;;9.93
53412;BMP280;39307;52.870;13.660;2023-06-05T04:00:31;101585.44;;;10.02
53412;BMP280;39307;52.870;13.660;2023-06-05T04:02:56;101588.72;;;10.11
53412;BMP280;39307;52.870;13.660;2023-06-05T04:05:22;101580.44;;;10.16
53412;BMP280;39307;52.870;13.660;2023-06-05T04:07:48;101579.13;;;10.20
53412;BMP280;39307;52.870;13.660;2023-06-05T04:10:14;101580.91;;;10.27
53412;BMP280;39307;52.870;13.660;2023-06-05T04:12:40;101581.94;;;10.34
53412;BMP280;39307;52.870;13.660;2023-06-05T04:15:05;101585.88;;;10.38
53412;BMP280;39307;52.870;13.660;2023-06-05T04:17:32;101586.34;;;10.41
53412;BMP280;39307;52.870;13.660;2023-06-05T04:19:58;101588.31;;;10.47
53412;BMP280;39307;52.870;13.660;2023-06-05T04:22:24;101593.72;;;10.54
53412;BMP280;39307;52.870;13.660;2023-06-05T04:24:49;101599.47;;;10.57
53412;BMP280;39307;52.870;13.660;2023-06-05T04:27:15;101597.19;;;10.62
53412;BMP280;39307;52.870;13.660;2023-06-05T04:29:41;101595.88;;;10.66
53412;BMP280;39307;52.870;13.660;2023-06-05T04:32:07;101595.41;;;10.70
53412;BMP280;39307;52.870;13.660;2023-06-05T04:34:32;101597.50;;;10.75
53412;BMP280;39307;52.870;13.660;2023-06-05T04:36:58;101591.63;;;10.81
53412;BMP280;39307;52.870;13.660;2023-06-05T04:39:24;101589.34;;;10.86
53412;BMP280;39307;52.870;13.660;2023-06-05T04:41:50;101596.38;;;10.93
53412;BMP280;39307;52.870;13.660;2023-06-05T04:44:16;101599.16;;;10.99
53412;BMP280;39307;52.870;13.660;2023-06-05T04:46:43;101595.72;;;11.07
53412;BMP280;39307;52.870;13.660;2023-06-05T04:49:13;101591.59;;;11.12
53412;BMP280;39307;52.870;13.660;2023-06-05T04:51:40;101593.41;;;11.20
53412;BMP280;39307;52.870;13.660;2023-06-05T04:54:06;101592.56;;;11.27
53412;BMP280;39307;52.870;13.660;2023-06-05T04:56:33;101593.53;;;11.34
53412;BMP280;39307;52.870;13.660;2023-06-05T04:58:59;101589.47;;;11.39
53412;BMP280;39307;52.870;13.660;2023-06-05T05:01:25;101584.22;;;11.47
53412;BMP280;39307;52.870;13.660;2023-06-05T05:03:52;101585.97;;;11.54
53412;BMP280;39307;52.870;13.660;2023-06-05T05:06:18;101586.78;;;11.63
53412;BMP280;39307;52.870;13.660;2023-06-05T05:08:44;101583.97;;;11.72
53412;BMP280;39307;52.870;13.660;2023-06-05T05:11:11;101591.47;;;11.83
53412;BMP280;39307;52.870;13.660;2023-06-05T05:13:37;101586.16;;;11.91
53412;BMP280;39307;52.870;13.660;2023-06-05T05:16:03;101590.41;;;12.00
53412;BMP280;39307;52.870;13.660;2023-06-05T05:18:28;101586.94;;;12.07
53412;BMP280;39307;52.870;13.660;2023-06-05T05:20:55;101591.63;;;12.19
53412;BMP280;39307;52.870;13.660;2023-06-05T05:23:21;101589.94;;;12.26
53412;BMP280;39307;52.870;13.660;2023-06-05T05:25:47;101588.91;;;12.35
53412;BMP280;39307;52.870;13.660;2023-06-05T05:28:13;101585.00;;;12.53
53412;BMP280;39307;52.870;13.660;2023-06-05T05:30:40;101578.63;;;12.70
53412;BMP280;39307;52.870;13.660;2023-06-05T05:33:06;101590.56;;;12.80
53412;BMP280;39307;52.870;13.660;2023-06-05T05:35:32;101594.94;;;12.88
53412;BMP280;39307;52.870;13.660;2023-06-05T05:37:58;101585.34;;;12.95
53412;BMP280;39307;52.870;13.660;2023-06-05T05:40:26;101592.53;;;13.00
53412;BMP280;39307;52.870;13.660;2023-06-05T05:42:52;101594.44;;;13.06
53412;BMP280;39307;52.870;13.660;2023-06-05T05:45:19;101588.31;;;13.14
53412;BMP280;39307;52.870;13.660;2023-06-05T05:47:45;101594.13;;;13.24
53412;BMP280;39307;52.870;13.660;2023-06-05T05:50:12;101590.06;;;13.35
53412;BMP280;39307;52.870;13.660;2023-06-05T05:52:38;101593.53;;;13.50
53412;BMP280;39307;52.870;13.660;2023-06-05T05:55:05;101594.34;;;13.65
53412;BMP280;39307;52.870;13.660;2023-06-05T05:57:31;101595.53;;;13.77
53412;BMP280;39307;52.870;13.660;2023-06-05T05:59:57;101596.31;;;13.91
53412;BMP280;39307;52.870;13.660;2023-06-05T06:02:24;101591.78;;;14.00
53412;BMP280;39307;52.870;13.660;2023-06-05T06:04:50;101600.03;;;14.11
53412;BMP280;39307;52.870;13.660;2023-06-05T06:07:17;101599.56;;;14.22
53412;BMP280;39307;52.870;13.660;2023-06-05T06:09:43;101608.44;;;14.35
53412;BMP280;39307;52.870;13.660;2023-06-05T06:12:11;101606.31;;;14.45
53412;BMP280;39307;52.870;13.660;2023-06-05T06:14:37;101603.75;;;14.51
53412;BMP280;39307;52.870;13.660;2023-06-05T06:17:04;101609.88;;;14.58
53412;BMP280;39307;52.870;13.660;2023-06-05T06:19:30;101604.50;;;14.66
53412;BMP280;39307;52.870;13.660;2023-06-05T06:21:56;101601.75;;;14.74
53412;BMP280;39307;52.870;13.660;2023-06-05T06:24:22;101603.50;;;14.88
53412;BMP280;39307;52.870;13.660;2023-06-05T06:26:49;101611.34;;;15.02
53412;BMP280;39307;52.870;13.660;2023-06-05T06:29:18;101610.41;;;15.09
53412;BMP280;39307;52.870;13.660;2023-06-05T06:31:45;101605.19;;;15.16
53412;BMP280;39307;52.870;13.660;2023-06-05T06:34:11;101607.91;;;15.22
53412;BMP280;39307;52.870;13.660;2023-06-05T06:36:37;101605.91;;;15.30
53412;BMP280;39307;52.870;13.660;2023-06-05T06:39:04;101606.22;;;15.42
53412;BMP280;39307;52.870;13.660;2023-06-05T06:41:30;101607.47;;;15.52
53412;BMP280;39307;52.870;13.660;2023-06-05T06:43:56;101619.13;;;15.64
53412;BMP280;39307;52.870;13.660;2023-06-05T06:46:22;101611.75;;;15.80
53412;BMP280;39307;52.870;13.660;2023-06-05T06:48:48;101617.09;;;15.93
53412;BMP280;39307;52.870;13.660;2023-06-05T06:51:15;101611.69;;;16.07
53412;BMP280;39307;52.870;13.660;2023-06-05T06:53:41;101613.16;;;16.16
53412;BMP280;39307;52.870;13.660;2023-06-05T06:56:07;101613.78;;;16.24
53412;BMP280;39307;52.870;13.660;2023-06-05T06:58:33;101617.28;;;16.31
53412;BMP280;39307;52.870;13.660;2023-06-05T07:00:59;101610.78;;;16.40
53412;BMP280;39307;52.870;13.660;2023-06-05T07:03:26;101609.41;;;16.50
53412;BMP280;39307;52.870;13.660;2023-06-05T07:05:52;101609.44;;;16.63
53412;BMP280;39307;52.870;13.660;2023-06-05T07:08:18;101607.03;;;16.81
53412;BMP280;39307;52.870;13.660;2023-06-05T07:10:44;101603.34;;;16.88
53412;BMP280;39307;52.870;13.660;2023-06-05T07:13:10;101601.56;;;16.95
53412;BMP280;39307;52.870;13.660;2023-06-05T07:15:37;101609.88;;;17.05
53412;BMP280;39307;52.870;13.660;2023-06-05T07:18:03;101608.31;;;17.17
53412;BMP280;39307;52.870;13.660;2023-06-05T07:20:29;101594.66;;;17.33
53412;BMP280;39307;52.870;13.660;2023-06-05T07:22:56;101598.88;;;17.59
53412;BMP280;39307;52.870;13.660;2023-06-05T07:25:22;101599.41;;;17.87
53412;BMP280;39307;52.870;13.660;2023-06-05T07:27:48;101592.06;;;18.01
53412;BMP280;39307;52.870;13.660;2023-06-05T07:30:14;101588.28;;;18.21
53412;BMP280;39307;52.870;13.660;2023-06-05T07:32:42;101588.81;;;18.36
53412;BMP280;39307;52.870;13.660;2023-06-05T07:35:09;101592.84;;;18.45
53412;BMP280;39307;52.870;13.660;2023-06-05T07:37:35;101596.19;;;18.71
53412;BMP280;39307;52.870;13.660;2023-06-05T07:40:02;101595.09;;;19.09
53412;BMP280;39307;52.870;13.660;2023-06-05T07:42:28;101595.91;;;19.51
53412;BMP280;39307;52.870;13.660;2023-06-05T07:44:54;101593.88;;;19.71
53412;BMP280;39307;52.870;13.660;2023-06-05T07:47:20;101595.38;;;19.85
53412;BMP280;39307;52.870;13.660;2023-06-05T07:49:57;101582.59;;;20.40
53412;BMP280;39307;52.870;13.660;2023-06-05T07:52:23;101584.03;;;20.71
53412;BMP280;39307;52.870;13.660;2023-06-05T07:54:50;101581.84;;;20.91
53412;BMP280;39307;52.870;13.660;2023-06-05T07:57:16;101579.50;;;21.46
53412;BMP280;39307;52.870;13.660;2023-06-05T07:59:42;101571.56;;;21.73
53412;BMP280;39307;52.870;13.660;2023-06-05T08:02:09;101569.38;;;22.32
53412;BMP280;39307;52.870;13.660;2023-06-05T08:04:35;101565.69;;;22.93
53412;BMP280;39307;52.870;13.660;2023-06-05T08:07:01;101562.81;;;23.32
53412;BMP280;39307;52.870;13.660;2023-06-05T08:09:28;101561.50;;;23.34
53412;BMP280;39307;52.870;13.660;2023-06-05T08:11:54;101570.25;;;23.83
53412;BMP280;39307;52.870;13.660;2023-06-05T08:14:20;101575.34;;;24.06
53412;BMP280;39307;52.870;13.660;2023-06-05T08:16:46;101568.28;;;24.42
53412;BMP280;39307;52.870;13.660;2023-06-05T08:19:12;101561.50;;;24.61
53412;BMP280;39307;52.870;13.660;2023-06-05T08:21:39;101553.22;;;24.89
53412;BMP280;39307;52.870;13.660;2023-06-05T08:24:05;101563.66;;;24.59
53412;BMP280;39307;52.870;13.660;2023-06-05T08:26:32;101555.00;;;24.78
53412;BMP280;39307;52.870;13.660;2023-06-05T08:28:59;101556.25;;;25.33
53412;BMP280;39307;52.870;13.660;2023-06-05T08:31:25;101560.53;;;25.79
53412;BMP280;39307;52.870;13.660;2023-06-05T08:33:52;101553.88;;;25.87
53412;BMP280;39307;52.870;13.660;2023-06-05T08:36:18;101552.91;;;25.52
53412;BMP280;39307;52.870;13.660;2023-06-05T08:38:44;101551.72;;;25.84
53412;BMP280;39307;52.870;13.660;2023-06-05T08:41:14;101550.69;;;25.90
53412;BMP280;39307;52.870;13.660;2023-06-05T08:43:40;101543.72;;;25.94
53412;BMP280;39307;52.870;13.660;2023-06-05T08:46:11;101542.81;;;25.69
53412;BMP280;39307;52.870;13.660;2023-06-05T08:48:45;101542.28;;;25.72
53412;BMP280;39307;52.870;13.660;2023-06-05T08:51:14;101526.22;;;25.81
53412;BMP280;39307;52.870;13.660;2023-06-05T08:53:47;101538.72;;;25.61
53412;BMP280;39307;52.870;13.660;2023-06-05T08:56:17;101532.94;;;25.89
53412;BMP280;39307;52.870;13.660;2023-06-05T08:58:44;101511.78;;;25.97
53412;BMP280;39307;52.870;13.660;2023-06-05T09:01:10;101511.88;;;26.22
53412;BMP280;39307;52.870;13.660;2023-06-05T09:03:37;101526.94;;;26.23
53412;BMP280;39307;52.870;13.660;2023-06-05T09:06:03;101505.19;;;26.59
53412;BMP280;39307;52.870;13.660;2023-06-05T09:08:32;101511.94;;;26.61
53412;BMP280;39307;52.870;13.660;2023-06-05T09:11:20;101514.31;;;26.53
53412;BMP280;39307;52.870;13.660;2023-06-05T09:13:47;101514.13;;;26.84
53412;BMP280;39307;52.870;13.660;2023-06-05T09:16:13;101515.06;;;27.52
53412;BMP280;39307;52.870;13.660;2023-06-05T09:18:56;101513.19;;;27.52
53412;BMP280;39307;52.870;13.660;2023-06-05T09:21:24;101506.81;;;28.01
53412;BMP280;39307;52.870;13.660;2023-06-05T09:23:51;101503.91;;;27.87
53412;BMP280;39307;52.870;13.660;2023-06-05T09:26:17;101504.88;;;27.44
53412;BMP280;39307;52.870;13.660;2023-06-05T09:28:55;101500.91;;;27.12
53412;BMP280;39307;52.870;13.660;2023-06-05T09:31:22;101516.38;;;27.64
53412;BMP280;39307;52.870;13.660;2023-06-05T09:33:55;101513.09;;;27.77
53412;BMP280;39307;52.870;13.660;2023-06-05T09:36:21;101500.16;;;27.84
53412;BMP280;39307;52.870;13.660;2023-06-05T09:38:47;101495.00;;;27.92
53412;BMP280;39307;52.870;13.660;2023-06-05T09:41:14;101499.50;;;28.06
53412;BMP280;39307;52.870;13.660;2023-06-05T09:43:40;101508.34;;;27.49
53412;BMP280;39307;52.870;13.660;2023-06-05T09:46:11;101499.59;;;26.90
53412;BMP280;39307;52.870;13.660;2023-06-05T09:48:41;101501.44;;;27.04
53412;BMP280;39307;52.870;13.660;2023-06-05T09:51:17;101507.38;;;27.06
53412;BMP280;39307;52.870;13.660;2023-06-05T09:53:45;101497.72;;;26.90
53412;BMP280;39307;52.870;13.660;2023-06-05T09:56:18;101497.72;;;26.75
53412;BMP280;39307;52.870;13.660;2023-06-05T09:58:46;101488.56;;;26.57
53412;BMP280;39307;52.870;13.660;2023-06-05T10:01:16;101483.22;;;26.76
53412;BMP280;39307;52.870;13.660;2023-06-05T10:03:56;101482.13;;;26.63
53412;BMP280;39307;52.870;13.660;2023-06-05T10:06:26;101476.22;;;26.51
53412;BMP280;39307;52.870;13.660;2023-06-05T10:08:53;101477.03;;;26.51
53412;BMP280;39307;52.870;13.660;2023-06-05T10:11:21;101478.38;;;26.73
53412;BMP280;39307;52.870;13.660;2023-06-05T10:13:48;101476.47;;;26.94
53412;BMP280;39307;52.870;13.660;2023-06-05T10:16:16;101478.59;;;26.62
53412;BMP280;39307;52.870;13.660;2023-06-05T10:18:46;101475.13;;;26.32
53412;BMP280;39307;52.870;13.660;2023-06-05T10:21:16;101472.16;;;26.58
53412;BMP280;39307;52.870;13.660;2023-06-05T10:24:05;101478.81;;;26.07
53412;BMP280;39307;52.870;13.660;2023-06-05T10:32:37;101456.00;;;27.07
53412;BMP280;39307;52.870;13.660;2023-06-05T10:38:17;101450.84;;;27.25
53412;BMP280;39307;52.870;13.660;2023-06-05T10:41:04;101444.22;;;27.71
53412;BMP280;39307;52.870;13.660;2023-06-05T10:43:51;101447.13;;;27.17
53412;BMP280;39307;52.870;13.660;2023-06-05T10:46:35;101443.06;;;27.24
53412;BMP280;39307;52.870;13.660;2023-06-05T10:49:05;101439.16;;;26.43
53412;BMP280;39307;52.870;13.660;2023-06-05T10:53:58;101433.22;;;26.56
53412;BMP280;39307;52.870;13.660;2023-06-05T10:59:20;101433.91;;;27.30
53412;BMP280;39307;52.870;13.660;2023-06-05T11:07:22;101433.09;;;27.97
53412;BMP280;39307;52.870;13.660;2023-06-05T11:10:05;101430.47;;;27.77
53412;BMP280;39307;52.870;13.660;2023-06-05T11:15:11;101434.34;;;28.09
53412;BMP280;39307;52.870;13.660;2023-06-05T11:17:45;101421.47;;;28.01
53412;BMP280;39307;52.870;13.660;2023-06-05T11:27:59;101422.59;;;27.95
53412;BMP280;39307;52.870;13.660;2023-06-05T11:30:28;101411.94;;;28.18
53412;BMP280;39307;52.870;13.660;2023-06-05T11:32:54;101410.34;;;28.45
53412;BMP280;39307;52.870;13.660;2023-06-05T11:35:21;101406.63;;;28.74
53412;BMP280;39307;52.870;13.660;2023-06-05T11:37:47;101408.56;;;28.69
53412;BMP280;39307;52.870;13.660;2023-06-05T11:40:24;101410.91;;;28.75
53412;BMP280;39307;52.870;13.660;2023-06-05T11:42:51;101417.72;;;28.96
53412;BMP280;39307;52.870;13.660;2023-06-05T11:45:17;101407.69;;;28.73
53412;BMP280;39307;52.870;13.660;2023-06-05T11:47:43;101400.81;;;28.86
53412;BMP280;39307;52.870;13.660;2023-06-05T11:50:11;101412.97;;;28.83
53412;BMP280;39307;52.870;13.660;2023-06-05T11:52:38;101399.03;;;28.76
53412;BMP280;39307;52.870;13.660;2023-06-05T11:55:12;101405.03;;;28.97
53412;BMP280;39307;52.870;13.660;2023-06-05T11:57:46;101402.19;;;29.11
53412;BMP280;39307;52.870;13.660;2023-06-05T12:00:12;101398.44;;;29.07
53412;BMP280;39307;52.870;13.660;2023-06-05T12:02:42;101393.94;;;28.75
53412;BMP280;39307;52.870;13.660;2023-06-05T12:05:09;101381.97;;;28.86
53412;BMP280;39307;52.870;13.660;2023-06-05T12:07:36;101385.25;;;29.29
53412;BMP280;39307;52.870;13.660;2023-06-05T12:10:09;101380.59;;;29.53
53412;BMP280;39307;52.870;13.660;2023-06-05T12:12:50;101382.34;;;29.44
53412;BMP280;39307;52.870;13.660;2023-06-05T12:15:18;101381.06;;;29.18
53412;BMP280;39307;52.870;13.660;2023-06-05T12:17:55;101387.66;;;28.84
53412;BMP280;39307;52.870;13.660;2023-06-05T12:20:22;101379.06;;;29.05
53412;BMP280;39307;52.870;13.660;2023-06-05T12:22:49;101375.44;;;29.15
53412;BMP280;39307;52.870;13.660;2023-06-05T12:25:18;101363.97;;;29.28
53412;BMP280;39307;52.870;13.660;2023-06-05T12:27:44;101364.47;;;29.30
53412;BMP280;39307;52.870;13.660;2023-06-05T12:30:10;101372.00;;;29.09
53412;BMP280;39307;52.870;13.660;2023-06-05T12:32:36;101367.94;;;29.12
53412;BMP280;39307;52.870;13.660;2023-06-05T12:35:02;101377.19;;;29.06
53412;BMP280;39307;52.870;13.660;2023-06-05T12:37:28;101368.22;;;29.10
53412;BMP280;39307;52.870;13.660;2023-06-05T12:39:55;101372.72;;;28.92
53412;BMP280;39307;52.870;13.660;2023-06-05T12:42:21;101364.25;;;29.03
53412;BMP280;39307;52.870;13.660;2023-06-05T12:44:46;101353.09;;;29.14
53412;BMP280;39307;52.870;13.660;2023-06-05T12:47:13;101373.13;;;29.03
53412;BMP280;39307;52.870;13.660;2023-06-05T12:49:39;101361.94;;;28.92
53412;BMP280;39307;52.870;13.660;2023-06-05T12:52:06;101358.19;;;28.65
53412;BMP280;39307;52.870;13.660;2023-06-05T12:54:33;101350.91;;;28.65
53412;BMP280;39307;52.870;13.660;2023-06-05T12:57:00;101353.53;;;28.75
53412;BMP280;39307;52.870;13.660;2023-06-05T12:59:26;101353.06;;;28.91
53412;BMP280;39307;52.870;13.660;2023-06-05T13:01:52;101342.91;;;28.60
53412;BMP280;39307;52.870;13.660;2023-06-05T13:04:18;101338.88;;;28.30
53412;BMP280;39307;52.870;13.660;2023-06-05T13:06:45;101331.94;;;28.24
53412;BMP280;39307;52.870;13.660;2023-06-05T13:09:11;101331.72;;;28.15
53412;BMP280;39307;52.870;13.660;2023-06-05T13:11:37;101332.75;;;28.19
53412;BMP280;39307;52.870;13.660;2023-06-05T13:14:03;101332.72;;;28.24
53412;BMP280;39307;52.870;13.660;2023-06-05T13:16:30;101333.38;;;28.40
53412;BMP280;39307;52.870;13.660;2023-06-05T13:18:56;101327.72;;;28.13
53412;BMP280;39307;52.870;13.660;2023-06-05T13:21:23;101320.44;;;27.81
53412;BMP280;39307;52.870;13.660;2023-06-05T13:23:49;101330.78;;;27.59
53412;BMP280;39307;52.870;13.660;2023-06-05T13:26:14;101321.91;;;27.58
53412;BMP280;39307;52.870;13.660;2023-06-05T13:28:40;101311.66;;;27.65
53412;BMP280;39307;52.870;13.660;2023-06-05T13:31:06;101319.91;;;27.79
53412;BMP280;39307;52.870;13.660;2023-06-05T13:33:32;101316.00;;;27.99
53412;BMP280;39307;52.870;13.660;2023-06-05T13:35:58;101317.47;;;27.77
53412;BMP280;39307;52.870;13.660;2023-06-05T13:38:24;101317.34;;;27.59
53412;BMP280;39307;52.870;13.660;2023-06-05T13:40:49;101314.00;;;27.39
53412;BMP280;39307;52.870;13.660;2023-06-05T13:43:15;101308.22;;;27.55
53412;BMP280;39307;52.870;13.660;2023-06-05T13:45:41;101309.47;;;27.72
53412;BMP280;39307;52.870;13.660;2023-06-05T13:48:07;101302.63;;;27.84
53412;BMP280;39307;52.870;13.660;2023-06-05T13:50:33;101302.25;;;28.01
53412;BMP280;39307;52.870;13.660;2023-06-05T13:52:58;101303.59;;;27.98
53412;BMP280;39307;52.870;13.660;2023-06-05T13:55:24;101305.13;;;27.76
53412;BMP280;39307;52.870;13.660;2023-06-05T13:57:50;101293.97;;;27.55
53412;BMP280;39307;52.870;13.660;2023-06-05T14:00:16;101299.25;;;27.26
53412;BMP280;39307;52.870;13.660;2023-06-05T14:02:42;101299.09;;;27.03
53412;BMP280;39307;52.870;13.660;2023-06-05T14:05:07;101296.41;;;26.98
53412;BMP280;39307;52.870;13.660;2023-06-05T14:07:34;101297.00;;;26.96
53412;BMP280;39307;52.870;13.660;2023-06-05T14:10:01;101292.69;;;26.95
53412;BMP280;39307;52.870;13.660;2023-06-05T14:12:27;101288.44;;;26.84
53412;BMP280;39307;52.870;13.660;2023-06-05T14:14:53;101298.63;;;26.87
53412;BMP280;39307;52.870;13.660;2023-06-05T14:17:19;101296.78;;;26.67
53412;BMP280;39307;52.870;13.660;2023-06-05T14:19:44;101289.28;;;26.74